sensor_id;sensor_type;location;lat;lon;timestamp;temperature;humidity
28484;DHT22;15704;48.834;8.736;2023-02-22T00:01:42;6.10;99.90
28484;DHT22;15704;48.834;8.736;2023-02-22T00:04:36;6.10;99.90
28484;DHT22;15704;48.834;8.736;2023-02-22T00:07:05;6.10;99.90
28484;DHT22;15704;48.834;8.736;2023-02-22T00:09:32;6.10;99.90
28484;DHT22;15704;48.834;8.736;2023-02-22T00:12:07;6.10;99.90
28484;DHT22;15704;48.834;8.736;2023-02-22T00:14:35;6.10;99.90
28484;DHT22;15704;48.834;8.736;2023-02-22T00:17:02;6.20;99.90
28484;DHT22;15704;48.834;8.736;2023-02-22T00:19:28;6.20;99.90
28484;DHT22;15704;48.834;8.736;2023-02-22T00:21:56;6.20;99.90
28484;DHT22;15704;48.834;8.736;2023-02-22T00:24:23;6.20;99.90
28484;DHT22;15704;48.834;8.736;2023-02-22T00:26:54;6.20;99.90
28484;DHT22;15704;48.834;8.736;2023-02-22T00:29:22;6.10;99.90
28484;DHT22;15704;48.834;8.736;2023-02-22T00:31:49;6.10;99.90
28484;DHT22;15704;48.834;8.736;2023-02-22T00:34:16;6.10;99.90
28484;DHT22;15704;48.834;8.736;2023-02-22T00:36:49;6.10;99.90
28484;DHT22;15704;48.834;8.736;2023-02-22T00:39:16;6.10;99.90
28484;DHT22;15704;48.834;8.736;2023-02-22T00:41:43;6.10;99.90
28484;DHT22;15704;48.834;8.736;2023-02-22T00:44:10;6.10;99.90
28484;DHT22;15704;48.834;8.736;2023-02-22T00:46:40;6.10;99.90
28484;DHT22;15704;48.834;8.736;2023-02-22T00:49:07;6.10;99.90
28484;DHT22;15704;48.834;8.736;2023-02-22T00:51:36;6.10;99.90
28484;DHT22;15704;48.834;8.736;2023-02-22T00:54:10;6.10;99.90
28484;DHT22;15704;48.834;8.736;2023-02-22T00:56:37;6.10;99.90
28484;DHT22;15704;48.834;8.736;2023-02-22T00:59:04;6.10;99.90
28484;DHT22;15704;48.834;8.736;2023-02-22T01:01:31;6.10;99.90
28484;DHT22;15704;48.834;8.736;2023-02-22T01:03:57;6.10;99.90
28484;DHT22;15704;48.834;8.736;2023-02-22T01:06:24;6.10;99.90
28484;DHT22;15704;48.834;8.736;2023-02-22T01:08:56;6.00;99.90
28484;DHT22;15704;48.834;8.736;2023-02-22T01:11:27;6.10;99.90
28484;DHT22;15704;48.834;8.736;2023-02-22T01:13:55;6.10;99.90
28484;DHT22;15704;48.834;8.736;2023-02-22T01:16:28;6.10;99.90
28484;DHT22;15704;48.834;8.736;2023-02-22T01:18:56;6.10;99.90
28484;DHT22;15704;48.834;8.736;2023-02-22T01:21:29;6.00;99.90
28484;DHT22;15704;48.834;8.736;2023-02-22T01:24:01;6.00;99.90
28484;DHT22;15704;48.834;8.736;2023-02-22T01:26:28;6.10;99.90
28484;DHT22;15704;48.834;8.736;2023-02-22T01:28:55;6.10;99.90
28484;DHT22;15704;48.834;8.736;2023-02-22T01:31:21;6.10;99.90
28484;DHT22;15704;48.834;8.736;2023-02-22T01:33:50;6.10;99.90
28484;DHT22;15704;48.834;8.736;2023-02-22T01:36:21;6.10;99.90
28484;DHT22;15704;48.834;8.736;2023-02-22T01:38:48;6.10;99.90
28484;DHT22;15704;48.834;8.736;2023-02-22T01:41:15;6.20;99.90
28484;DHT22;15704;48.834;8.736;2023-02-22T01:43:56;6.20;99.90
28484;DHT22;15704;48.834;8.736;2023-02-22T01:46:28;6.20;99.90
28484;DHT22;15704;48.834;8.736;2023-02-22T01:49:00;6.20;99.90
28484;DHT22;15704;48.834;8.736;2023-02-22T01:51:34;6.20;99.90
28484;DHT22;15704;48.834;8.736;2023-02-22T01:54:13;6.30;99.90
28484;DHT22;15704;48.834;8.736;2023-02-22T01:56:53;6.40;99.90
28484;DHT22;15704;48.834;8.736;2023-02-22T01:59:28;6.50;99.90
28484;DHT22;15704;48.834;8.736;2023-02-22T02:02:10;6.50;99.90
28484;DHT22;15704;48.834;8.736;2023-02-22T02:04:43;6.50;99.90
28484;DHT22;15704;48.834;8.736;2023-02-22T02:07:41;6.50;99.90
28484;DHT22;15704;48.834;8.736;2023-02-22T02:10:34;6.60;99.90
28484;DHT22;15704;48.834;8.736;2023-02-22T02:13:02;6.70;99.90
28484;DHT22;15704;48.834;8.736;2023-02-22T02:15:32;6.80;99.90
28484;DHT22;15704;48.834;8.736;2023-02-22T02:18:05;6.80;99.90
28484;DHT22;15704;48.834;8.736;2023-02-22T02:26:45;6.90;99.90
28484;DHT22;15704;48.834;8.736;2023-02-22T02:35:37;6.90;99.90
28484;DHT22;15704;48.834;8.736;2023-02-22T02:39:15;6.90;99.90
28484;DHT22;15704;48.834;8.736;2023-02-22T02:41:47;7.00;99.90
28484;DHT22;15704;48.834;8.736;2023-02-22T02:44:44;6.90;99.90
28484;DHT22;15704;48.834;8.736;2023-02-22T02:47:16;6.90;99.90
28484;DHT22;15704;48.834;8.736;2023-02-22T02:50:04;7.00;99.90
28484;DHT22;15704;48.834;8.736;2023-02-22T02:52:43;7.00;99.90
28484;DHT22;15704;48.834;8.736;2023-02-22T02:55:12;7.00;99.90
28484;DHT22;15704;48.834;8.736;2023-02-22T02:57:39;7.00;99.90
28484;DHT22;15704;48.834;8.736;2023-02-22T03:00:07;7.10;99.90
28484;DHT22;15704;48.834;8.736;2023-02-22T03:10:11;7.10;99.90
28484;DHT22;15704;48.834;8.736;2023-02-22T03:15:12;7.10;99.90
28484;DHT22;15704;48.834;8.736;2023-02-22T03:18:01;7.10;99.90
28484;DHT22;15704;48.834;8.736;2023-02-22T03:20:52;7.20;99.90
28484;DHT22;15704;48.834;8.736;2023-02-22T03:23:45;7.20;99.90
28484;DHT22;15704;48.834;8.736;2023-02-22T03:26:21;7.20;99.90
28484;DHT22;15704;48.834;8.736;2023-02-22T03:28:56;7.20;99.90
28484;DHT22;15704;48.834;8.736;2023-02-22T03:31:40;7.30;99.90
28484;DHT22;15704;48.834;8.736;2023-02-22T03:34:21;7.40;99.90
28484;DHT22;15704;48.834;8.736;2023-02-22T03:37:16;7.30;99.90
28484;DHT22;15704;48.834;8.736;2023-02-22T03:39:45;7.30;99.90
28484;DHT22;15704;48.834;8.736;2023-02-22T03:42:25;7.30;99.90
28484;DHT22;15704;48.834;8.736;2023-02-22T03:45:04;7.40;99.90
28484;DHT22;15704;48.834;8.736;2023-02-22T03:47:48;7.40;99.90
28484;DHT22;15704;48.834;8.736;2023-02-22T03:50:29;7.40;99.90
28484;DHT22;15704;48.834;8.736;2023-02-22T03:53:01;7.40;99.90
28484;DHT22;15704;48.834;8.736;2023-02-22T03:55:28;7.40;99.90
28484;DHT22;15704;48.834;8.736;2023-02-22T03:58:04;7.30;99.90
28484;DHT22;15704;48.834;8.736;2023-02-22T04:00:33;7.30;99.90
28484;DHT22;15704;48.834;8.736;2023-02-22T04:03:06;7.30;99.90
28484;DHT22;15704;48.834;8.736;2023-02-22T04:05:40;7.30;99.90
28484;DHT22;15704;48.834;8.736;2023-02-22T04:08:07;7.40;99.90
28484;DHT22;15704;48.834;8.736;2023-02-22T04:10:36;7.40;99.90
28484;DHT22;15704;48.834;8.736;2023-02-22T04:13:03;7.30;99.90
28484;DHT22;15704;48.834;8.736;2023-02-22T04:15:32;7.30;99.90
28484;DHT22;15704;48.834;8.736;2023-02-22T04:17:59;7.20;99.90
28484;DHT22;15704;48.834;8.736;2023-02-22T04:20:26;7.10;99.90
28484;DHT22;15704;48.834;8.736;2023-02-22T04:22:54;7.10;99.90
28484;DHT22;15704;48.834;8.736;2023-02-22T04:25:22;7.00;99.90
28484;DHT22;15704;48.834;8.736;2023-02-22T04:27:49;7.10;99.90
28484;DHT22;15704;48.834;8.736;2023-02-22T04:30:17;7.00;99.90
28484;DHT22;15704;48.834;8.736;2023-02-22T04:32:45;7.00;99.90
28484;DHT22;15704;48.834;8.736;2023-02-22T04:35:12;7.00;99.90
28484;DHT22;15704;48.834;8.736;2023-02-22T04:37:39;6.90;99.90
28484;DHT22;15704;48.834;8.736;2023-02-22T04:40:06;6.90;99.90
28484;DHT22;15704;48.834;8.736;2023-02-22T04:42:34;6.90;99.90
28484;DHT22;15704;48.834;8.736;2023-02-22T04:45:03;6.90;99.90
28484;DHT22;15704;48.834;8.736;2023-02-22T04:47:30;6.90;99.90
28484;DHT22;15704;48.834;8.736;2023-02-22T04:49:56;7.00;99.90
28484;DHT22;15704;48.834;8.736;2023-02-22T04:52:23;6.90;99.90
28484;DHT22;15704;48.834;8.736;2023-02-22T04:54:50;6.90;99.90
28484;DHT22;15704;48.834;8.736;2023-02-22T04:57:17;6.90;99.90
28484;DHT22;15704;48.834;8.736;2023-02-22T04:59:43;6.90;99.90
28484;DHT22;15704;48.834;8.736;2023-02-22T05:02:10;6.90;99.90
28484;DHT22;15704;48.834;8.736;2023-02-22T05:04:38;6.90;99.90
28484;DHT22;15704;48.834;8.736;2023-02-22T05:07:05;6.80;99.90
28484;DHT22;15704;48.834;8.736;2023-02-22T05:09:31;6.80;99.90
28484;DHT22;15704;48.834;8.736;2023-02-22T05:11:58;6.60;99.90
28484;DHT22;15704;48.834;8.736;2023-02-22T05:14:31;6.60;99.90
28484;DHT22;15704;48.834;8.736;2023-02-22T05:17:07;6.50;99.90
28484;DHT22;15704;48.834;8.736;2023-02-22T05:19:35;6.30;99.90
28484;DHT22;15704;48.834;8.736;2023-02-22T05:22:02;6.30;99.90
28484;DHT22;15704;48.834;8.736;2023-02-22T05:24:45;6.20;99.90
28484;DHT22;15704;48.834;8.736;2023-02-22T05:27:34;6.10;99.90
28484;DHT22;15704;48.834;8.736;2023-02-22T05:30:01;6.10;99.90
28484;DHT22;15704;48.834;8.736;2023-02-22T05:32:27;6.00;99.90
28484;DHT22;15704;48.834;8.736;2023-02-22T05:35:07;6.00;99.90
28484;DHT22;15704;48.834;8.736;2023-02-22T05:37:34;5.90;99.90
28484;DHT22;15704;48.834;8.736;2023-02-22T05:40:05;6.00;99.90
28484;DHT22;15704;48.834;8.736;2023-02-22T05:42:35;6.00;99.90
28484;DHT22;15704;48.834;8.736;2023-02-22T05:45:05;6.10;99.90
28484;DHT22;15704;48.834;8.736;2023-02-22T05:47:32;6.00;99.90
28484;DHT22;15704;48.834;8.736;2023-02-22T05:49:59;5.90;99.90
28484;DHT22;15704;48.834;8.736;2023-02-22T05:52:27;5.80;99.90
28484;DHT22;15704;48.834;8.736;2023-02-22T05:54:56;5.70;99.90
28484;DHT22;15704;48.834;8.736;2023-02-22T05:57:22;5.50;99.90
28484;DHT22;15704;48.834;8.736;2023-02-22T05:59:49;5.40;99.90
28484;DHT22;15704;48.834;8.736;2023-02-22T06:02:24;5.30;99.90
28484;DHT22;15704;48.834;8.736;2023-02-22T06:05:00;5.20;99.90
28484;DHT22;15704;48.834;8.736;2023-02-22T06:07:26;5.00;99.90
28484;DHT22;15704;48.834;8.736;2023-02-22T06:09:58;5.00;99.90
28484;DHT22;15704;48.834;8.736;2023-02-22T06:12:28;4.90;99.90
28484;DHT22;15704;48.834;8.736;2023-02-22T06:14:54;4.90;99.90
28484;DHT22;15704;48.834;8.736;2023-02-22T06:20:19;4.80;99.90
28484;DHT22;15704;48.834;8.736;2023-02-22T06:22:53;4.80;99.90
28484;DHT22;15704;48.834;8.736;2023-02-22T06:25:27;4.80;99.90
28484;DHT22;15704;48.834;8.736;2023-02-22T06:28:06;4.80;99.90
28484;DHT22;15704;48.834;8.736;2023-02-22T06:30:39;4.90;99.90
28484;DHT22;15704;48.834;8.736;2023-02-22T06:33:14;5.00;99.90
28484;DHT22;15704;48.834;8.736;2023-02-22T06:35:43;5.10;99.90
28484;DHT22;15704;48.834;8.736;2023-02-22T06:38:10;5.20;99.90
28484;DHT22;15704;48.834;8.736;2023-02-22T06:40:37;5.30;99.90
28484;DHT22;15704;48.834;8.736;2023-02-22T06:43:07;5.40;99.90
28484;DHT22;15704;48.834;8.736;2023-02-22T06:45:36;5.50;99.90
28484;DHT22;15704;48.834;8.736;2023-02-22T06:48:03;5.60;99.90
28484;DHT22;15704;48.834;8.736;2023-02-22T06:50:30;5.70;99.90
28484;DHT22;15704;48.834;8.736;2023-02-22T06:53:01;5.80;99.90
28484;DHT22;15704;48.834;8.736;2023-02-22T06:55:29;5.80;99.90
28484;DHT22;15704;48.834;8.736;2023-02-22T06:57:57;5.80;99.90
28484;DHT22;15704;48.834;8.736;2023-02-22T07:00:27;5.90;99.90
28484;DHT22;15704;48.834;8.736;2023-02-22T07:02:56;5.90;99.90
28484;DHT22;15704;48.834;8.736;2023-02-22T07:05:34;6.10;99.90
28484;DHT22;15704;48.834;8.736;2023-02-22T07:08:05;6.20;99.90
28484;DHT22;15704;48.834;8.736;2023-02-22T07:10:34;6.30;99.90
28484;DHT22;15704;48.834;8.736;2023-02-22T07:13:02;6.50;99.90
28484;DHT22;15704;48.834;8.736;2023-02-22T07:15:40;6.60;99.90
28484;DHT22;15704;48.834;8.736;2023-02-22T07:18:07;6.70;99.90
28484;DHT22;15704;48.834;8.736;2023-02-22T07:20:39;6.90;99.90
28484;DHT22;15704;48.834;8.736;2023-02-22T07:23:13;7.00;99.90
28484;DHT22;15704;48.834;8.736;2023-02-22T07:25:39;7.20;99.90
28484;DHT22;15704;48.834;8.736;2023-02-22T07:28:06;7.30;99.90
28484;DHT22;15704;48.834;8.736;2023-02-22T07:30:33;7.40;99.90
28484;DHT22;15704;48.834;8.736;2023-02-22T07:33:04;7.50;99.90
28484;DHT22;15704;48.834;8.736;2023-02-22T07:35:51;7.70;99.90
28484;DHT22;15704;48.834;8.736;2023-02-22T07:38:23;7.80;99.90
28484;DHT22;15704;48.834;8.736;2023-02-22T07:40:59;7.90;99.90
28484;DHT22;15704;48.834;8.736;2023-02-22T07:43:34;8.10;99.90
28484;DHT22;15704;48.834;8.736;2023-02-22T07:46:02;8.10;99.90
28484;DHT22;15704;48.834;8.736;2023-02-22T07:48:30;8.20;99.90
28484;DHT22;15704;48.834;8.736;2023-02-22T07:51:00;8.30;99.90
28484;DHT22;15704;48.834;8.736;2023-02-22T07:53:30;8.30;99.90
28484;DHT22;15704;48.834;8.736;2023-02-22T07:56:11;8.40;99.90
28484;DHT22;15704;48.834;8.736;2023-02-22T07:58:38;8.50;99.90
28484;DHT22;15704;48.834;8.736;2023-02-22T08:01:09;8.60;99.90
28484;DHT22;15704;48.834;8.736;2023-02-22T08:03:36;8.60;99.90
28484;DHT22;15704;48.834;8.736;2023-02-22T08:06:05;8.80;99.90
28484;DHT22;15704;48.834;8.736;2023-02-22T08:08:33;8.90;99.90
28484;DHT22;15704;48.834;8.736;2023-02-22T08:11:09;9.00;99.90
28484;DHT22;15704;48.834;8.736;2023-02-22T08:13:38;9.00;99.90
28484;DHT22;15704;48.834;8.736;2023-02-22T08:16:04;9.10;99.90
28484;DHT22;15704;48.834;8.736;2023-02-22T08:18:31;9.10;99.90
28484;DHT22;15704;48.834;8.736;2023-02-22T08:20:58;9.10;99.90
28484;DHT22;15704;48.834;8.736;2023-02-22T08:23:25;9.10;99.90
28484;DHT22;15704;48.834;8.736;2023-02-22T08:26:08;9.10;99.90
28484;DHT22;15704;48.834;8.736;2023-02-22T08:28:47;9.20;99.90
28484;DHT22;15704;48.834;8.736;2023-02-22T08:31:14;9.50;99.90
28484;DHT22;15704;48.834;8.736;2023-02-22T08:33:41;9.70;99.90
28484;DHT22;15704;48.834;8.736;2023-02-22T08:36:08;10.00;99.90
28484;DHT22;15704;48.834;8.736;2023-02-22T08:38:35;10.40;99.90
28484;DHT22;15704;48.834;8.736;2023-02-22T08:41:17;10.60;99.90
28484;DHT22;15704;48.834;8.736;2023-02-22T08:43:44;10.80;99.90
28484;DHT22;15704;48.834;8.736;2023-02-22T08:46:16;10.90;99.90
28484;DHT22;15704;48.834;8.736;2023-02-22T08:48:50;10.90;99.90
28484;DHT22;15704;48.834;8.736;2023-02-22T08:51:20;11.20;99.90
28484;DHT22;15704;48.834;8.736;2023-02-22T08:54:05;11.30;99.90
28484;DHT22;15704;48.834;8.736;2023-02-22T08:56:32;11.40;99.90
28484;DHT22;15704;48.834;8.736;2023-02-22T08:58:59;11.40;99.90
28484;DHT22;15704;48.834;8.736;2023-02-22T09:01:29;11.50;99.90
28484;DHT22;15704;48.834;8.736;2023-02-22T09:03:59;11.50;99.90
28484;DHT22;15704;48.834;8.736;2023-02-22T09:06:27;11.40;99.90
28484;DHT22;15704;48.834;8.736;2023-02-22T09:08:57;11.70;99.90
28484;DHT22;15704;48.834;8.736;2023-02-22T09:11:26;11.50;99.90
28484;DHT22;15704;48.834;8.736;2023-02-22T09:13:55;11.50;99.90
28484;DHT22;15704;48.834;8.736;2023-02-22T09:16:22;11.60;99.90
28484;DHT22;15704;48.834;8.736;2023-02-22T09:18:49;11.80;99.90
28484;DHT22;15704;48.834;8.736;2023-02-22T09:21:15;11.70;99.90
28484;DHT22;15704;48.834;8.736;2023-02-22T09:23:46;11.60;99.90
28484;DHT22;15704;48.834;8.736;2023-02-22T09:26:19;11.60;99.90
28484;DHT22;15704;48.834;8.736;2023-02-22T09:28:45;11.80;99.90
28484;DHT22;15704;48.834;8.736;2023-02-22T09:31:12;11.80;99.90
28484;DHT22;15704;48.834;8.736;2023-02-22T09:33:42;11.90;99.90
28484;DHT22;15704;48.834;8.736;2023-02-22T09:36:13;12.00;99.90
28484;DHT22;15704;48.834;8.736;2023-02-22T09:38:40;12.10;99.90
28484;DHT22;15704;48.834;8.736;2023-02-22T09:44:00;12.20;99.90
28484;DHT22;15704;48.834;8.736;2023-02-22T09:46:38;12.30;99.90
28484;DHT22;15704;48.834;8.736;2023-02-22T09:49:31;12.20;99.90
28484;DHT22;15704;48.834;8.736;2023-02-22T09:52:04;12.10;99.90
28484;DHT22;15704;48.834;8.736;2023-02-22T09:54:38;12.10;99.90
28484;DHT22;15704;48.834;8.736;2023-02-22T09:57:12;12.00;99.90
28484;DHT22;15704;48.834;8.736;2023-02-22T09:59:56;11.90;99.90
28484;DHT22;15704;48.834;8.736;2023-02-22T10:02:30;12.00;99.90
28484;DHT22;15704;48.834;8.736;2023-02-22T10:05:05;12.00;99.90
28484;DHT22;15704;48.834;8.736;2023-02-22T10:07:39;11.90;99.90
28484;DHT22;15704;48.834;8.736;2023-02-22T10:10:15;12.00;99.90
28484;DHT22;15704;48.834;8.736;2023-02-22T10:15:33;12.50;99.90
28484;DHT22;15704;48.834;8.736;2023-02-22T10:20:56;12.40;99.90
28484;DHT22;15704;48.834;8.736;2023-02-22T10:23:34;12.40;99.90
28484;DHT22;15704;48.834;8.736;2023-02-22T10:28:53;12.20;99.90
28484;DHT22;15704;48.834;8.736;2023-02-22T10:31:27;12.30;99.90
28484;DHT22;15704;48.834;8.736;2023-02-22T10:34:04;12.40;99.90
28484;DHT22;15704;48.834;8.736;2023-02-22T10:36:33;12.40;99.90
28484;DHT22;15704;48.834;8.736;2023-02-22T10:39:14;12.50;99.90
28484;DHT22;15704;48.834;8.736;2023-02-22T10:41:48;12.60;99.90
28484;DHT22;15704;48.834;8.736;2023-02-22T10:44:16;12.60;99.90
28484;DHT22;15704;48.834;8.736;2023-02-22T10:46:43;12.90;99.90
28484;DHT22;15704;48.834;8.736;2023-02-22T10:49:17;12.90;99.90
28484;DHT22;15704;48.834;8.736;2023-02-22T10:51:51;13.10;99.90
28484;DHT22;15704;48.834;8.736;2023-02-22T10:54:29;12.90;99.90
28484;DHT22;15704;48.834;8.736;2023-02-22T10:56:57;13.10;99.90
28484;DHT22;15704;48.834;8.736;2023-02-22T10:59:27;13.10;99.90
28484;DHT22;15704;48.834;8.736;2023-02-22T11:01:56;13.00;99.90
28484;DHT22;15704;48.834;8.736;2023-02-22T11:04:23;13.10;99.90
28484;DHT22;15704;48.834;8.736;2023-02-22T11:07:18;13.20;99.90
28484;DHT22;15704;48.834;8.736;2023-02-22T11:12:20;13.50;99.90
28484;DHT22;15704;48.834;8.736;2023-02-22T11:14:47;13.20;99.90
28484;DHT22;15704;48.834;8.736;2023-02-22T11:17:30;13.60;99.90
28484;DHT22;15704;48.834;8.736;2023-02-22T11:19:58;13.70;99.90
28484;DHT22;15704;48.834;8.736;2023-02-22T11:22:30;13.60;99.90
28484;DHT22;15704;48.834;8.736;2023-02-22T11:25:00;13.70;99.90
28484;DHT22;15704;48.834;8.736;2023-02-22T11:27:38;13.80;99.90
28484;DHT22;15704;48.834;8.736;2023-02-22T11:32:49;13.60;99.90
28484;DHT22;15704;48.834;8.736;2023-02-22T11:38:15;13.50;99.90
28484;DHT22;15704;48.834;8.736;2023-02-22T11:40:43;13.40;99.90
28484;DHT22;15704;48.834;8.736;2023-02-22T11:43:16;13.30;99.90
28484;DHT22;15704;48.834;8.736;2023-02-22T11:46:33;12.90;99.90
28484;DHT22;15704;48.834;8.736;2023-02-22T11:49:01;12.90;99.90
28484;DHT22;15704;48.834;8.736;2023-02-22T12:05:50;13.80;99.90
28484;DHT22;15704;48.834;8.736;2023-02-22T12:11:26;13.90;99.90
28484;DHT22;15704;48.834;8.736;2023-02-22T12:19:36;13.60;99.90
28484;DHT22;15704;48.834;8.736;2023-02-22T12:22:11;13.60;99.90
28484;DHT22;15704;48.834;8.736;2023-02-22T12:27:57;14.00;99.90
28484;DHT22;15704;48.834;8.736;2023-02-22T12:30:26;14.00;99.90
28484;DHT22;15704;48.834;8.736;2023-02-22T12:32:58;13.80;99.90
28484;DHT22;15704;48.834;8.736;2023-02-22T12:41:04;13.70;99.90
28484;DHT22;15704;48.834;8.736;2023-02-22T12:43:38;13.80;99.90
28484;DHT22;15704;48.834;8.736;2023-02-22T12:46:11;13.80;99.90
28484;DHT22;15704;48.834;8.736;2023-02-22T12:48:57;13.40;99.90
28484;DHT22;15704;48.834;8.736;2023-02-22T12:54:17;13.10;99.90
28484;DHT22;15704;48.834;8.736;2023-02-22T12:57:07;13.10;99.90
28484;DHT22;15704;48.834;8.736;2023-02-22T13:04:46;13.10;99.90
28484;DHT22;15704;48.834;8.736;2023-02-22T13:13:22;13.30;99.90
28484;DHT22;15704;48.834;8.736;2023-02-22T13:18:51;13.50;99.90
28484;DHT22;15704;48.834;8.736;2023-02-22T13:21:41;13.60;99.90
28484;DHT22;15704;48.834;8.736;2023-02-22T13:24:27;13.70;99.90
28484;DHT22;15704;48.834;8.736;2023-02-22T13:29:38;13.70;99.90
28484;DHT22;15704;48.834;8.736;2023-02-22T13:35:19;13.90;99.90
28484;DHT22;15704;48.834;8.736;2023-02-22T13:52:16;13.20;99.90
28484;DHT22;15704;48.834;8.736;2023-02-22T13:55:03;13.40;99.90
28484;DHT22;15704;48.834;8.736;2023-02-22T13:57:41;13.70;99.90
28484;DHT22;15704;48.834;8.736;2023-02-22T14:16:23;13.50;99.90
28484;DHT22;15704;48.834;8.736;2023-02-22T14:19:17;13.30;99.90
28484;DHT22;15704;48.834;8.736;2023-02-22T14:24:45;13.60;99.90
28484;DHT22;15704;48.834;8.736;2023-02-22T14:27:14;13.50;99.90
28484;DHT22;15704;48.834;8.736;2023-02-22T14:29:54;13.40;99.90
28484;DHT22;15704;48.834;8.736;2023-02-22T14:32:30;13.20;99.90
28484;DHT22;15704;48.834;8.736;2023-02-22T14:34:59;13.20;99.90
28484;DHT22;15704;48.834;8.736;2023-02-22T14:37:36;13.10;99.90
28484;DHT22;15704;48.834;8.736;2023-02-22T14:40:33;13.10;99.90
28484;DHT22;15704;48.834;8.736;2023-02-22T14:45:43;12.60;99.90
28484;DHT22;15704;48.834;8.736;2023-02-22T14:48:23;12.60;99.90
28484;DHT22;15704;48.834;8.736;2023-02-22T14:51:01;12.50;99.90
28484;DHT22;15704;48.834;8.736;2023-02-22T14:53:49;12.50;99.90
28484;DHT22;15704;48.834;8.736;2023-02-22T14:56:24;12.40;99.90
28484;DHT22;15704;48.834;8.736;2023-02-22T14:59:13;12.40;99.90
28484;DHT22;15704;48.834;8.736;2023-02-22T15:01:41;12.40;99.90
28484;DHT22;15704;48.834;8.736;2023-02-22T15:04:33;12.40;99.90
28484;DHT22;15704;48.834;8.736;2023-02-22T15:07:22;12.40;99.90
28484;DHT22;15704;48.834;8.736;2023-02-22T15:13:00;12.30;99.90
28484;DHT22;15704;48.834;8.736;2023-02-22T15:15:39;12.20;99.90
28484;DHT22;15704;48.834;8.736;2023-02-22T15:20:50;12.20;99.90
28484;DHT22;15704;48.834;8.736;2023-02-22T15:23:26;12.20;99.90
28484;DHT22;15704;48.834;8.736;2023-02-22T15:25:56;12.10;99.90
28484;DHT22;15704;48.834;8.736;2023-02-22T15:28:26;12.10;99.90
28484;DHT22;15704;48.834;8.736;2023-02-22T15:31:14;11.90;99.90
28484;DHT22;15704;48.834;8.736;2023-02-22T15:33:41;11.70;99.90
28484;DHT22;15704;48.834;8.736;2023-02-22T15:36:14;11.70;99.90
28484;DHT22;15704;48.834;8.736;2023-02-22T15:38:51;11.60;99.90
28484;DHT22;15704;48.834;8.736;2023-02-22T15:41:31;11.50;99.90
28484;DHT22;15704;48.834;8.736;2023-02-22T15:46:29;11.30;99.90
28484;DHT22;15704;48.834;8.736;2023-02-22T15:49:23;11.30;99.90
28484;DHT22;15704;48.834;8.736;2023-02-22T15:52:03;11.10;99.90
28484;DHT22;15704;48.834;8.736;2023-02-22T15:54:43;11.10;99.90
28484;DHT22;15704;48.834;8.736;2023-02-22T15:57:19;11.00;99.90
28484;DHT22;15704;48.834;8.736;2023-02-22T15:59:51;11.00;99.90
28484;DHT22;15704;48.834;8.736;2023-02-22T16:02:29;10.90;99.90
28484;DHT22;15704;48.834;8.736;2023-02-22T16:05:08;10.80;99.90
28484;DHT22;15704;48.834;8.736;2023-02-22T16:07:48;10.70;99.90
28484;DHT22;15704;48.834;8.736;2023-02-22T16:12:48;10.80;99.90
28484;DHT22;15704;48.834;8.736;2023-02-22T16:15:17;10.70;99.90
28484;DHT22;15704;48.834;8.736;2023-02-22T16:17:46;10.60;99.90
28484;DHT22;15704;48.834;8.736;2023-02-22T16:20:28;10.60;99.90
28484;DHT22;15704;48.834;8.736;2023-02-22T16:22:56;10.50;99.90
28484;DHT22;15704;48.834;8.736;2023-02-22T16:25:29;10.50;99.90
28484;DHT22;15704;48.834;8.736;2023-02-22T16:27:59;10.40;99.90
28484;DHT22;15704;48.834;8.736;2023-02-22T16:30:39;10.40;99.90
28484;DHT22;15704;48.834;8.736;2023-02-22T16:33:10;10.30;99.90
28484;DHT22;15704;48.834;8.736;2023-02-22T16:35:47;10.30;99.90
28484;DHT22;15704;48.834;8.736;2023-02-22T16:38:25;10.20;99.90
28484;DHT22;15704;48.834;8.736;2023-02-22T16:40:54;10.20;99.90
28484;DHT22;15704;48.834;8.736;2023-02-22T16:43:24;10.10;99.90
28484;DHT22;15704;48.834;8.736;2023-02-22T16:45:57;10.00;99.90
28484;DHT22;15704;48.834;8.736;2023-02-22T16:48:29;9.90;99.90
28484;DHT22;15704;48.834;8.736;2023-02-22T16:51:09;9.80;99.90
28484;DHT22;15704;48.834;8.736;2023-02-22T16:53:42;9.80;99.90
28484;DHT22;15704;48.834;8.736;2023-02-22T16:56:11;9.70;99.90
28484;DHT22;15704;48.834;8.736;2023-02-22T16:58:42;9.70;99.90
28484;DHT22;15704;48.834;8.736;2023-02-22T17:01:17;9.60;99.90
28484;DHT22;15704;48.834;8.736;2023-02-22T17:03:45;9.50;99.90
28484;DHT22;15704;48.834;8.736;2023-02-22T17:06:12;9.50;99.90
28484;DHT22;15704;48.834;8.736;2023-02-22T17:08:39;9.40;99.90
28484;DHT22;15704;48.834;8.736;2023-02-22T17:11:07;9.30;99.90
28484;DHT22;15704;48.834;8.736;2023-02-22T17:13:36;9.30;99.90
28484;DHT22;15704;48.834;8.736;2023-02-22T17:16:08;9.30;99.90
28484;DHT22;15704;48.834;8.736;2023-02-22T17:18:43;9.30;99.90
28484;DHT22;15704;48.834;8.736;2023-02-22T17:21:11;9.30;99.90
28484;DHT22;15704;48.834;8.736;2023-02-22T17:23:38;9.30;99.90
28484;DHT22;15704;48.834;8.736;2023-02-22T17:26:06;9.30;99.90
28484;DHT22;15704;48.834;8.736;2023-02-22T17:28:33;9.30;99.90
28484;DHT22;15704;48.834;8.736;2023-02-22T17:31:00;9.20;99.90
28484;DHT22;15704;48.834;8.736;2023-02-22T17:33:30;9.20;99.90
28484;DHT22;15704;48.834;8.736;2023-02-22T17:35:59;9.20;99.90
28484;DHT22;15704;48.834;8.736;2023-02-22T17:38:28;9.20;99.90
28484;DHT22;15704;48.834;8.736;2023-02-22T17:40:57;9.20;99.90
28484;DHT22;15704;48.834;8.736;2023-02-22T17:43:31;9.10;99.90
28484;DHT22;15704;48.834;8.736;2023-02-22T17:45:57;9.10;99.90
28484;DHT22;15704;48.834;8.736;2023-02-22T17:48:25;9.10;99.90
28484;DHT22;15704;48.834;8.736;2023-02-22T17:50:52;9.10;99.90
28484;DHT22;15704;48.834;8.736;2023-02-22T17:53:19;9.10;99.90
28484;DHT22;15704;48.834;8.736;2023-02-22T17:55:51;9.10;99.90
28484;DHT22;15704;48.834;8.736;2023-02-22T17:58:18;9.10;99.90
28484;DHT22;15704;48.834;8.736;2023-02-22T18:00:47;9.00;99.90
28484;DHT22;15704;48.834;8.736;2023-02-22T18:03:17;9.10;99.90
28484;DHT22;15704;48.834;8.736;2023-02-22T18:05:54;9.00;99.90
28484;DHT22;15704;48.834;8.736;2023-02-22T18:08:27;9.00;99.90
28484;DHT22;15704;48.834;8.736;2023-02-22T18:10:54;9.00;99.90
28484;DHT22;15704;48.834;8.736;2023-02-22T18:13:27;9.00;99.90
28484;DHT22;15704;48.834;8.736;2023-02-22T18:15:57;8.90;99.90
28484;DHT22;15704;48.834;8.736;2023-02-22T18:18:31;9.00;99.90
28484;DHT22;15704;48.834;8.736;2023-02-22T18:20:57;8.90;99.90
28484;DHT22;15704;48.834;8.736;2023-02-22T18:23:27;8.90;99.90
28484;DHT22;15704;48.834;8.736;2023-02-22T18:25:55;8.90;99.90
28484;DHT22;15704;48.834;8.736;2023-02-22T18:28:35;8.90;99.90
28484;DHT22;15704;48.834;8.736;2023-02-22T18:31:11;8.80;99.90
28484;DHT22;15704;48.834;8.736;2023-02-22T18:33:47;8.80;99.90
28484;DHT22;15704;48.834;8.736;2023-02-22T18:36:15;8.80;99.90
28484;DHT22;15704;48.834;8.736;2023-02-22T18:38:43;8.80;99.90
28484;DHT22;15704;48.834;8.736;2023-02-22T18:41:12;8.90;99.90